sensor_id;sensor_type;location;lat;lon;timestamp;temperature;humidity
13462;DHT22;6803;45.264;5.468;2022-10-16T00:02:10;13.60;99.90
13462;DHT22;6803;45.264;5.468;2022-10-16T00:04:41;13.60;99.90
13462;DHT22;6803;45.264;5.468;2022-10-16T00:07:12;13.50;99.90
13462;DHT22;6803;45.264;5.468;2022-10-16T00:09:42;13.40;99.90
13462;DHT22;6803;45.264;5.468;2022-10-16T00:12:13;13.50;99.90
13462;DHT22;6803;45.264;5.468;2022-10-16T00:14:44;13.50;99.90
13462;DHT22;6803;45.264;5.468;2022-10-16T00:17:14;13.70;99.90
13462;DHT22;6803;45.264;5.468;2022-10-16T00:19:45;13.50;99.90
13462;DHT22;6803;45.264;5.468;2022-10-16T00:22:15;13.70;99.90
13462;DHT22;6803;45.264;5.468;2022-10-16T00:24:46;13.80;99.90
13462;DHT22;6803;45.264;5.468;2022-10-16T00:27:16;13.60;99.90
13462;DHT22;6803;45.264;5.468;2022-10-16T00:29:50;13.60;99.90
13462;DHT22;6803;45.264;5.468;2022-10-16T00:32:21;13.50;99.90
13462;DHT22;6803;45.264;5.468;2022-10-16T00:34:52;13.30;99.90
13462;DHT22;6803;45.264;5.468;2022-10-16T00:37:23;13.30;99.90
13462;DHT22;6803;45.264;5.468;2022-10-16T00:39:54;13.10;99.90
13462;DHT22;6803;45.264;5.468;2022-10-16T00:42:24;13.10;99.90
13462;DHT22;6803;45.264;5.468;2022-10-16T00:44:58;13.10;99.90
13462;DHT22;6803;45.264;5.468;2022-10-16T00:47:32;13.00;99.90
13462;DHT22;6803;45.264;5.468;2022-10-16T00:50:04;13.00;99.90
13462;DHT22;6803;45.264;5.468;2022-10-16T00:52:36;13.10;99.90
13462;DHT22;6803;45.264;5.468;2022-10-16T00:55:09;13.10;99.90
13462;DHT22;6803;45.264;5.468;2022-10-16T00:57:40;13.00;99.90
13462;DHT22;6803;45.264;5.468;2022-10-16T01:00:15;13.00;99.90
13462;DHT22;6803;45.264;5.468;2022-10-16T01:02:53;12.90;99.90
13462;DHT22;6803;45.264;5.468;2022-10-16T01:05:25;13.00;99.90
13462;DHT22;6803;45.264;5.468;2022-10-16T01:08:00;12.90;99.90
13462;DHT22;6803;45.264;5.468;2022-10-16T01:10:34;12.90;99.90
13462;DHT22;6803;45.264;5.468;2022-10-16T01:13:08;12.90;99.90
13462;DHT22;6803;45.264;5.468;2022-10-16T01:15:42;12.80;99.90
13462;DHT22;6803;45.264;5.468;2022-10-16T01:18:16;13.10;99.90
13462;DHT22;6803;45.264;5.468;2022-10-16T01:20:49;13.40;99.90
13462;DHT22;6803;45.264;5.468;2022-10-16T01:23:30;13.40;99.90
13462;DHT22;6803;45.264;5.468;2022-10-16T01:26:44;13.50;99.90
13462;DHT22;6803;45.264;5.468;2022-10-16T01:29:18;13.50;99.90
13462;DHT22;6803;45.264;5.468;2022-10-16T01:31:53;13.60;99.90
13462;DHT22;6803;45.264;5.468;2022-10-16T01:34:28;13.80;99.90
13462;DHT22;6803;45.264;5.468;2022-10-16T01:37:02;13.80;99.90
13462;DHT22;6803;45.264;5.468;2022-10-16T01:39:35;13.90;99.90
13462;DHT22;6803;45.264;5.468;2022-10-16T01:42:09;14.00;99.90
13462;DHT22;6803;45.264;5.468;2022-10-16T01:44:41;14.30;99.90
13462;DHT22;6803;45.264;5.468;2022-10-16T01:47:13;14.40;99.90
13462;DHT22;6803;45.264;5.468;2022-10-16T01:49:46;14.50;99.90
13462;DHT22;6803;45.264;5.468;2022-10-16T01:52:19;14.70;99.90
13462;DHT22;6803;45.264;5.468;2022-10-16T01:54:53;14.80;99.90
13462;DHT22;6803;45.264;5.468;2022-10-16T01:57:25;14.80;99.90
13462;DHT22;6803;45.264;5.468;2022-10-16T02:00:00;14.80;99.90
13462;DHT22;6803;45.264;5.468;2022-10-16T02:02:31;14.70;99.90
13462;DHT22;6803;45.264;5.468;2022-10-16T02:05:06;14.70;99.90
13462;DHT22;6803;45.264;5.468;2022-10-16T02:07:37;14.60;99.90
13462;DHT22;6803;45.264;5.468;2022-10-16T02:10:09;14.50;99.90
13462;DHT22;6803;45.264;5.468;2022-10-16T02:12:42;14.50;99.90
13462;DHT22;6803;45.264;5.468;2022-10-16T02:15:13;14.40;99.90
13462;DHT22;6803;45.264;5.468;2022-10-16T02:17:43;14.50;99.90
13462;DHT22;6803;45.264;5.468;2022-10-16T02:20:14;14.10;99.90
13462;DHT22;6803;45.264;5.468;2022-10-16T02:22:47;13.90;99.90
13462;DHT22;6803;45.264;5.468;2022-10-16T02:25:22;13.90;99.90
13462;DHT22;6803;45.264;5.468;2022-10-16T02:27:55;13.80;99.90
13462;DHT22;6803;45.264;5.468;2022-10-16T02:30:29;13.70;99.90
13462;DHT22;6803;45.264;5.468;2022-10-16T02:33:01;13.60;99.90
13462;DHT22;6803;45.264;5.468;2022-10-16T02:35:32;13.70;99.90
13462;DHT22;6803;45.264;5.468;2022-10-16T02:38:05;13.60;99.90
13462;DHT22;6803;45.264;5.468;2022-10-16T02:40:36;13.60;99.90
13462;DHT22;6803;45.264;5.468;2022-10-16T02:43:07;13.50;99.90
13462;DHT22;6803;45.264;5.468;2022-10-16T02:45:39;13.50;99.90
13462;DHT22;6803;45.264;5.468;2022-10-16T02:48:09;13.50;99.90
13462;DHT22;6803;45.264;5.468;2022-10-16T02:50:40;13.60;99.90
13462;DHT22;6803;45.264;5.468;2022-10-16T02:53:10;13.70;99.90
13462;DHT22;6803;45.264;5.468;2022-10-16T02:55:41;13.70;99.90
13462;DHT22;6803;45.264;5.468;2022-10-16T02:58:12;13.50;99.90
13462;DHT22;6803;45.264;5.468;2022-10-16T03:00:43;13.40;99.90
13462;DHT22;6803;45.264;5.468;2022-10-16T03:03:13;13.40;99.90
13462;DHT22;6803;45.264;5.468;2022-10-16T03:05:45;13.40;99.90
13462;DHT22;6803;45.264;5.468;2022-10-16T03:08:15;13.50;99.90
13462;DHT22;6803;45.264;5.468;2022-10-16T03:10:46;13.60;99.90
13462;DHT22;6803;45.264;5.468;2022-10-16T03:13:17;13.50;99.90
13462;DHT22;6803;45.264;5.468;2022-10-16T03:15:49;13.60;99.90
13462;DHT22;6803;45.264;5.468;2022-10-16T03:18:20;13.50;99.90
13462;DHT22;6803;45.264;5.468;2022-10-16T03:20:50;13.40;99.90
13462;DHT22;6803;45.264;5.468;2022-10-16T03:23:21;13.30;99.90
13462;DHT22;6803;45.264;5.468;2022-10-16T03:25:51;13.20;99.90
13462;DHT22;6803;45.264;5.468;2022-10-16T03:28:23;13.20;99.90
13462;DHT22;6803;45.264;5.468;2022-10-16T03:30:53;13.30;99.90
13462;DHT22;6803;45.264;5.468;2022-10-16T03:33:24;13.40;99.90
13462;DHT22;6803;45.264;5.468;2022-10-16T03:35:55;13.50;99.90
13462;DHT22;6803;45.264;5.468;2022-10-16T03:38:26;13.60;99.90
13462;DHT22;6803;45.264;5.468;2022-10-16T03:40:56;13.60;99.90
13462;DHT22;6803;45.264;5.468;2022-10-16T03:43:27;13.80;99.90
13462;DHT22;6803;45.264;5.468;2022-10-16T03:45:57;13.80;99.90
13462;DHT22;6803;45.264;5.468;2022-10-16T03:48:28;13.80;99.90
13462;DHT22;6803;45.264;5.468;2022-10-16T03:50:59;13.80;99.90
13462;DHT22;6803;45.264;5.468;2022-10-16T03:53:30;13.90;99.90
13462;DHT22;6803;45.264;5.468;2022-10-16T03:56:01;13.80;99.90
13462;DHT22;6803;45.264;5.468;2022-10-16T03:58:31;13.70;99.90
13462;DHT22;6803;45.264;5.468;2022-10-16T04:01:02;13.60;99.90
13462;DHT22;6803;45.264;5.468;2022-10-16T04:03:33;13.40;99.90
13462;DHT22;6803;45.264;5.468;2022-10-16T04:06:04;13.50;99.90
13462;DHT22;6803;45.264;5.468;2022-10-16T04:08:35;13.40;99.90
13462;DHT22;6803;45.264;5.468;2022-10-16T04:11:06;13.40;99.90
13462;DHT22;6803;45.264;5.468;2022-10-16T04:13:37;13.60;99.90
13462;DHT22;6803;45.264;5.468;2022-10-16T04:16:07;13.70;99.90
13462;DHT22;6803;45.264;5.468;2022-10-16T04:18:38;13.70;99.90
13462;DHT22;6803;45.264;5.468;2022-10-16T04:21:09;13.70;99.90
13462;DHT22;6803;45.264;5.468;2022-10-16T04:23:39;13.90;99.90
13462;DHT22;6803;45.264;5.468;2022-10-16T04:26:10;13.80;99.90
13462;DHT22;6803;45.264;5.468;2022-10-16T04:28:40;13.60;99.90
13462;DHT22;6803;45.264;5.468;2022-10-16T04:31:11;14.00;99.90
13462;DHT22;6803;45.264;5.468;2022-10-16T04:33:44;13.90;99.90
13462;DHT22;6803;45.264;5.468;2022-10-16T04:36:15;13.80;99.90
13462;DHT22;6803;45.264;5.468;2022-10-16T04:38:45;13.90;99.90
13462;DHT22;6803;45.264;5.468;2022-10-16T04:41:16;14.00;99.90
13462;DHT22;6803;45.264;5.468;2022-10-16T04:43:46;13.80;99.90
13462;DHT22;6803;45.264;5.468;2022-10-16T04:46:17;13.50;99.90
13462;DHT22;6803;45.264;5.468;2022-10-16T04:48:48;13.30;99.90
13462;DHT22;6803;45.264;5.468;2022-10-16T04:51:18;13.30;99.90
13462;DHT22;6803;45.264;5.468;2022-10-16T04:53:49;13.10;99.90
13462;DHT22;6803;45.264;5.468;2022-10-16T04:56:19;13.40;99.90
13462;DHT22;6803;45.264;5.468;2022-10-16T04:58:50;13.40;99.90
13462;DHT22;6803;45.264;5.468;2022-10-16T05:01:21;13.30;99.90
13462;DHT22;6803;45.264;5.468;2022-10-16T05:03:51;13.30;99.90
13462;DHT22;6803;45.264;5.468;2022-10-16T05:06:22;13.10;99.90
13462;DHT22;6803;45.264;5.468;2022-10-16T05:08:52;13.20;99.90
13462;DHT22;6803;45.264;5.468;2022-10-16T05:11:23;13.40;99.90
13462;DHT22;6803;45.264;5.468;2022-10-16T05:13:54;13.40;99.90
13462;DHT22;6803;45.264;5.468;2022-10-16T05:16:24;13.60;99.90
13462;DHT22;6803;45.264;5.468;2022-10-16T05:18:55;13.70;99.90
13462;DHT22;6803;45.264;5.468;2022-10-16T05:21:27;13.40;99.90
13462;DHT22;6803;45.264;5.468;2022-10-16T05:23:58;13.50;99.90
13462;DHT22;6803;45.264;5.468;2022-10-16T05:26:28;13.50;99.90
13462;DHT22;6803;45.264;5.468;2022-10-16T05:28:59;13.00;99.90
13462;DHT22;6803;45.264;5.468;2022-10-16T05:31:29;13.00;99.90
13462;DHT22;6803;45.264;5.468;2022-10-16T05:34:01;13.20;99.90
13462;DHT22;6803;45.264;5.468;2022-10-16T05:36:32;13.00;99.90
13462;DHT22;6803;45.264;5.468;2022-10-16T05:39:03;13.10;99.90
13462;DHT22;6803;45.264;5.468;2022-10-16T05:41:33;13.10;99.90
13462;DHT22;6803;45.264;5.468;2022-10-16T05:44:05;12.90;99.90
13462;DHT22;6803;45.264;5.468;2022-10-16T05:46:36;12.90;99.90
13462;DHT22;6803;45.264;5.468;2022-10-16T05:49:07;12.90;99.90
13462;DHT22;6803;45.264;5.468;2022-10-16T05:51:37;12.90;99.90
13462;DHT22;6803;45.264;5.468;2022-10-16T05:54:08;12.90;99.90
13462;DHT22;6803;45.264;5.468;2022-10-16T05:56:39;12.90;99.90
13462;DHT22;6803;45.264;5.468;2022-10-16T05:59:09;12.90;99.90
13462;DHT22;6803;45.264;5.468;2022-10-16T06:01:40;12.90;99.90
13462;DHT22;6803;45.264;5.468;2022-10-16T06:04:11;12.80;99.90
13462;DHT22;6803;45.264;5.468;2022-10-16T06:06:41;12.90;99.90
13462;DHT22;6803;45.264;5.468;2022-10-16T06:09:12;13.20;99.90
13462;DHT22;6803;45.264;5.468;2022-10-16T06:11:43;13.30;99.90
13462;DHT22;6803;45.264;5.468;2022-10-16T06:14:13;13.30;99.90
13462;DHT22;6803;45.264;5.468;2022-10-16T06:16:44;13.30;99.90
13462;DHT22;6803;45.264;5.468;2022-10-16T06:19:14;13.40;99.90
13462;DHT22;6803;45.264;5.468;2022-10-16T06:21:46;13.30;99.90
13462;DHT22;6803;45.264;5.468;2022-10-16T06:24:17;12.90;99.90
13462;DHT22;6803;45.264;5.468;2022-10-16T06:26:47;12.70;99.90
13462;DHT22;6803;45.264;5.468;2022-10-16T06:29:18;12.60;99.90
13462;DHT22;6803;45.264;5.468;2022-10-16T06:31:48;12.80;99.90
13462;DHT22;6803;45.264;5.468;2022-10-16T06:34:19;12.70;99.90
13462;DHT22;6803;45.264;5.468;2022-10-16T06:36:50;12.40;99.90
13462;DHT22;6803;45.264;5.468;2022-10-16T06:39:20;12.40;99.90
13462;DHT22;6803;45.264;5.468;2022-10-16T06:41:51;12.60;99.90
13462;DHT22;6803;45.264;5.468;2022-10-16T06:44:22;12.50;99.90
13462;DHT22;6803;45.264;5.468;2022-10-16T06:46:52;12.40;99.90
13462;DHT22;6803;45.264;5.468;2022-10-16T06:49:23;12.30;99.90
13462;DHT22;6803;45.264;5.468;2022-10-16T06:51:54;12.40;99.90
13462;DHT22;6803;45.264;5.468;2022-10-16T06:54:25;12.70;99.90
13462;DHT22;6803;45.264;5.468;2022-10-16T06:56:56;13.10;99.90
13462;DHT22;6803;45.264;5.468;2022-10-16T06:59:28;13.10;99.90
13462;DHT22;6803;45.264;5.468;2022-10-16T07:01:59;13.00;99.90
13462;DHT22;6803;45.264;5.468;2022-10-16T07:04:30;13.20;99.90
13462;DHT22;6803;45.264;5.468;2022-10-16T07:07:02;13.30;99.90
13462;DHT22;6803;45.264;5.468;2022-10-16T07:09:34;13.60;99.90
13462;DHT22;6803;45.264;5.468;2022-10-16T07:12:06;13.30;99.90
13462;DHT22;6803;45.264;5.468;2022-10-16T07:14:36;13.60;99.90
13462;DHT22;6803;45.264;5.468;2022-10-16T07:17:07;13.70;99.90
13462;DHT22;6803;45.264;5.468;2022-10-16T07:19:38;13.70;99.90
13462;DHT22;6803;45.264;5.468;2022-10-16T07:22:08;13.70;99.90
13462;DHT22;6803;45.264;5.468;2022-10-16T07:24:39;13.70;99.90
13462;DHT22;6803;45.264;5.468;2022-10-16T07:27:10;13.70;99.90
13462;DHT22;6803;45.264;5.468;2022-10-16T07:29:40;13.80;99.90
13462;DHT22;6803;45.264;5.468;2022-10-16T07:32:11;13.80;99.90
13462;DHT22;6803;45.264;5.468;2022-10-16T07:34:42;13.90;99.90
13462;DHT22;6803;45.264;5.468;2022-10-16T07:37:14;14.00;99.90
13462;DHT22;6803;45.264;5.468;2022-10-16T07:39:45;14.10;99.90
13462;DHT22;6803;45.264;5.468;2022-10-16T07:42:16;14.10;99.90
13462;DHT22;6803;45.264;5.468;2022-10-16T07:44:48;14.20;99.90
13462;DHT22;6803;45.264;5.468;2022-10-16T07:47:19;14.30;99.90
13462;DHT22;6803;45.264;5.468;2022-10-16T07:49:51;14.40;99.90
13462;DHT22;6803;45.264;5.468;2022-10-16T07:52:22;14.40;99.90
13462;DHT22;6803;45.264;5.468;2022-10-16T07:54:53;14.60;99.90
13462;DHT22;6803;45.264;5.468;2022-10-16T07:57:24;14.90;99.90
13462;DHT22;6803;45.264;5.468;2022-10-16T07:59:55;14.90;99.90
13462;DHT22;6803;45.264;5.468;2022-10-16T08:02:26;15.20;99.90
13462;DHT22;6803;45.264;5.468;2022-10-16T08:04:57;15.30;99.90
13462;DHT22;6803;45.264;5.468;2022-10-16T08:07:28;15.50;99.90
13462;DHT22;6803;45.264;5.468;2022-10-16T08:09:59;15.80;99.90
13462;DHT22;6803;45.264;5.468;2022-10-16T08:12:29;15.80;99.90
13462;DHT22;6803;45.264;5.468;2022-10-16T08:15:00;15.90;99.90
13462;DHT22;6803;45.264;5.468;2022-10-16T08:17:31;15.60;99.90
13462;DHT22;6803;45.264;5.468;2022-10-16T08:20:02;15.60;99.90
13462;DHT22;6803;45.264;5.468;2022-10-16T08:22:34;15.80;99.90
13462;DHT22;6803;45.264;5.468;2022-10-16T08:27:44;15.90;99.90
13462;DHT22;6803;45.264;5.468;2022-10-16T08:30:15;15.90;99.90
13462;DHT22;6803;45.264;5.468;2022-10-16T08:32:47;16.10;99.90
13462;DHT22;6803;45.264;5.468;2022-10-16T08:35:18;16.30;99.90
13462;DHT22;6803;45.264;5.468;2022-10-16T08:37:48;16.30;99.90
13462;DHT22;6803;45.264;5.468;2022-10-16T08:40:22;16.40;99.90
13462;DHT22;6803;45.264;5.468;2022-10-16T08:43:04;16.40;99.90
13462;DHT22;6803;45.264;5.468;2022-10-16T08:45:48;16.60;99.90
13462;DHT22;6803;45.264;5.468;2022-10-16T08:48:23;16.70;99.90
13462;DHT22;6803;45.264;5.468;2022-10-16T08:50:55;16.80;99.90
13462;DHT22;6803;45.264;5.468;2022-10-16T08:53:29;16.90;99.90
13462;DHT22;6803;45.264;5.468;2022-10-16T08:56:19;17.10;99.90
13462;DHT22;6803;45.264;5.468;2022-10-16T08:58:52;17.30;99.90
13462;DHT22;6803;45.264;5.468;2022-10-16T09:01:31;17.40;99.90
13462;DHT22;6803;45.264;5.468;2022-10-16T09:06:45;17.60;99.90
13462;DHT22;6803;45.264;5.468;2022-10-16T09:09:27;17.80;99.90
13462;DHT22;6803;45.264;5.468;2022-10-16T09:12:00;17.90;99.90
13462;DHT22;6803;45.264;5.468;2022-10-16T09:14:45;18.00;99.90
13462;DHT22;6803;45.264;5.468;2022-10-16T09:17:24;18.10;99.90
13462;DHT22;6803;45.264;5.468;2022-10-16T09:20:02;18.20;99.90
13462;DHT22;6803;45.264;5.468;2022-10-16T09:22:32;18.30;99.90
13462;DHT22;6803;45.264;5.468;2022-10-16T09:25:11;18.60;99.90
13462;DHT22;6803;45.264;5.468;2022-10-16T09:27:45;18.60;99.90
13462;DHT22;6803;45.264;5.468;2022-10-16T09:30:19;18.70;99.90
13462;DHT22;6803;45.264;5.468;2022-10-16T09:32:52;18.80;99.90
13462;DHT22;6803;45.264;5.468;2022-10-16T09:35:27;19.00;99.90
13462;DHT22;6803;45.264;5.468;2022-10-16T09:37:57;19.10;99.90
13462;DHT22;6803;45.264;5.468;2022-10-16T09:40:30;19.20;99.90
13462;DHT22;6803;45.264;5.468;2022-10-16T09:43:10;19.30;99.90
13462;DHT22;6803;45.264;5.468;2022-10-16T09:45:39;19.30;99.90
13462;DHT22;6803;45.264;5.468;2022-10-16T09:48:17;19.50;99.90
13462;DHT22;6803;45.264;5.468;2022-10-16T09:50:58;19.50;99.90
13462;DHT22;6803;45.264;5.468;2022-10-16T09:53:39;19.70;99.90
13462;DHT22;6803;45.264;5.468;2022-10-16T09:56:20;19.90;99.90
13462;DHT22;6803;45.264;5.468;2022-10-16T09:58:50;20.00;99.90
13462;DHT22;6803;45.264;5.468;2022-10-16T10:01:22;20.00;99.90
13462;DHT22;6803;45.264;5.468;2022-10-16T10:03:56;20.10;99.90
13462;DHT22;6803;45.264;5.468;2022-10-16T10:06:32;20.30;99.90
13462;DHT22;6803;45.264;5.468;2022-10-16T10:09:18;20.70;99.90
13462;DHT22;6803;45.264;5.468;2022-10-16T10:11:52;20.90;99.90
13462;DHT22;6803;45.264;5.468;2022-10-16T10:14:34;21.00;99.90
13462;DHT22;6803;45.264;5.468;2022-10-16T10:17:15;21.10;99.90
13462;DHT22;6803;45.264;5.468;2022-10-16T10:19:52;21.20;99.90
13462;DHT22;6803;45.264;5.468;2022-10-16T10:22:32;21.30;99.90
13462;DHT22;6803;45.264;5.468;2022-10-16T10:25:17;21.60;99.90
13462;DHT22;6803;45.264;5.468;2022-10-16T10:28:02;21.80;99.90
13462;DHT22;6803;45.264;5.468;2022-10-16T10:33:23;22.00;99.90
13462;DHT22;6803;45.264;5.468;2022-10-16T10:35:58;22.30;99.90
13462;DHT22;6803;45.264;5.468;2022-10-16T10:38:36;22.40;99.90
13462;DHT22;6803;45.264;5.468;2022-10-16T10:41:17;22.40;99.90
13462;DHT22;6803;45.264;5.468;2022-10-16T10:43:56;22.60;99.90
13462;DHT22;6803;45.264;5.468;2022-10-16T10:46:31;22.70;99.90
13462;DHT22;6803;45.264;5.468;2022-10-16T10:49:21;22.90;99.90
13462;DHT22;6803;45.264;5.468;2022-10-16T10:51:57;23.10;99.90
13462;DHT22;6803;45.264;5.468;2022-10-16T10:54:31;23.10;99.90
13462;DHT22;6803;45.264;5.468;2022-10-16T10:57:06;23.30;99.90
13462;DHT22;6803;45.264;5.468;2022-10-16T11:02:52;23.60;99.90
13462;DHT22;6803;45.264;5.468;2022-10-16T11:08:15;23.80;99.90
13462;DHT22;6803;45.264;5.468;2022-10-16T11:10:50;23.80;99.90
13462;DHT22;6803;45.264;5.468;2022-10-16T11:13:42;24.00;99.90
13462;DHT22;6803;45.264;5.468;2022-10-16T11:16:16;24.20;99.90
13462;DHT22;6803;45.264;5.468;2022-10-16T11:18:55;24.70;99.90
13462;DHT22;6803;45.264;5.468;2022-10-16T11:21:25;25.00;99.90
13462;DHT22;6803;45.264;5.468;2022-10-16T11:24:01;25.00;99.90
13462;DHT22;6803;45.264;5.468;2022-10-16T11:26:34;25.10;99.90
13462;DHT22;6803;45.264;5.468;2022-10-16T11:29:08;25.40;99.90
13462;DHT22;6803;45.264;5.468;2022-10-16T11:31:43;25.50;99.90
13462;DHT22;6803;45.264;5.468;2022-10-16T11:34:21;25.10;99.90
13462;DHT22;6803;45.264;5.468;2022-10-16T11:39:31;25.10;99.90
13462;DHT22;6803;45.264;5.468;2022-10-16T11:42:07;25.10;99.90
13462;DHT22;6803;45.264;5.468;2022-10-16T11:44:44;25.10;99.90
13462;DHT22;6803;45.264;5.468;2022-10-16T11:47:23;25.30;99.90
13462;DHT22;6803;45.264;5.468;2022-10-16T11:49:58;25.50;99.90
13462;DHT22;6803;45.264;5.468;2022-10-16T11:52:30;25.80;99.90
13462;DHT22;6803;45.264;5.468;2022-10-16T11:55:04;25.60;99.90
13462;DHT22;6803;45.264;5.468;2022-10-16T11:57:38;25.90;99.90
13462;DHT22;6803;45.264;5.468;2022-10-16T12:00:17;25.90;99.90
13462;DHT22;6803;45.264;5.468;2022-10-16T12:02:53;25.90;99.90
13462;DHT22;6803;45.264;5.468;2022-10-16T12:08:10;25.80;99.90
13462;DHT22;6803;45.264;5.468;2022-10-16T12:10:43;26.30;99.90
13462;DHT22;6803;45.264;5.468;2022-10-16T12:13:33;26.50;99.90
13462;DHT22;6803;45.264;5.468;2022-10-16T12:16:23;26.50;99.90
13462;DHT22;6803;45.264;5.468;2022-10-16T12:19:11;26.40;99.90
13462;DHT22;6803;45.264;5.468;2022-10-16T12:21:43;26.30;99.90
13462;DHT22;6803;45.264;5.468;2022-10-16T12:24:32;26.60;99.90
13462;DHT22;6803;45.264;5.468;2022-10-16T12:27:20;26.60;99.90
13462;DHT22;6803;45.264;5.468;2022-10-16T12:29:55;26.50;99.90
13462;DHT22;6803;45.264;5.468;2022-10-16T12:32:31;26.10;99.90
13462;DHT22;6803;45.264;5.468;2022-10-16T12:35:16;26.30;99.90
13462;DHT22;6803;45.264;5.468;2022-10-16T12:37:39;26.20;99.90
13462;DHT22;6803;45.264;5.468;2022-10-16T12:40:15;26.50;99.90
13462;DHT22;6803;45.264;5.468;2022-10-16T12:42:48;26.80;99.90
13462;DHT22;6803;45.264;5.468;2022-10-16T12:45:30;26.70;99.90
13462;DHT22;6803;45.264;5.468;2022-10-16T12:48:18;26.30;99.90
13462;DHT22;6803;45.264;5.468;2022-10-16T12:50:39;26.30;99.90
13462;DHT22;6803;45.264;5.468;2022-10-16T12:53:20;26.20;99.90
13462;DHT22;6803;45.264;5.468;2022-10-16T12:56:00;26.70;99.90
13462;DHT22;6803;45.264;5.468;2022-10-16T13:01:49;25.80;99.90
13462;DHT22;6803;45.264;5.468;2022-10-16T13:04:41;25.50;99.90
13462;DHT22;6803;45.264;5.468;2022-10-16T13:07:33;25.50;99.90
13462;DHT22;6803;45.264;5.468;2022-10-16T13:10:12;25.30;99.90
13462;DHT22;6803;45.264;5.468;2022-10-16T13:15:41;25.20;99.90
13462;DHT22;6803;45.264;5.468;2022-10-16T13:18:17;25.00;99.90
13462;DHT22;6803;45.264;5.468;2022-10-16T13:21:01;24.90;99.90
13462;DHT22;6803;45.264;5.468;2022-10-16T13:23:36;24.90;99.90
13462;DHT22;6803;45.264;5.468;2022-10-16T13:26:15;24.80;99.90
13462;DHT22;6803;45.264;5.468;2022-10-16T13:28:46;24.90;99.90
13462;DHT22;6803;45.264;5.468;2022-10-16T13:31:19;24.80;99.90
13462;DHT22;6803;45.264;5.468;2022-10-16T13:33:59;24.80;99.90
13462;DHT22;6803;45.264;5.468;2022-10-16T13:39:27;24.60;99.90
13462;DHT22;6803;45.264;5.468;2022-10-16T13:42:03;24.40;99.90
13462;DHT22;6803;45.264;5.468;2022-10-16T13:44:40;24.30;99.90
13462;DHT22;6803;45.264;5.468;2022-10-16T13:47:19;24.00;99.90
13462;DHT22;6803;45.264;5.468;2022-10-16T13:50:01;24.20;99.90
13462;DHT22;6803;45.264;5.468;2022-10-16T13:52:34;24.10;99.90
13462;DHT22;6803;45.264;5.468;2022-10-16T13:55:10;24.00;99.90
13462;DHT22;6803;45.264;5.468;2022-10-16T13:57:43;23.90;99.90
13462;DHT22;6803;45.264;5.468;2022-10-16T14:00:24;23.60;99.90
13462;DHT22;6803;45.264;5.468;2022-10-16T14:03:01;23.60;99.90
13462;DHT22;6803;45.264;5.468;2022-10-16T14:05:32;23.50;99.90
13462;DHT22;6803;45.264;5.468;2022-10-16T14:08:03;23.40;99.90
13462;DHT22;6803;45.264;5.468;2022-10-16T14:10:35;23.30;99.90
13462;DHT22;6803;45.264;5.468;2022-10-16T14:13:07;23.20;99.90
13462;DHT22;6803;45.264;5.468;2022-10-16T14:15:40;23.20;99.90
13462;DHT22;6803;45.264;5.468;2022-10-16T14:18:18;23.00;99.90
13462;DHT22;6803;45.264;5.468;2022-10-16T14:20:50;22.90;99.90
13462;DHT22;6803;45.264;5.468;2022-10-16T14:23:23;22.80;99.90
13462;DHT22;6803;45.264;5.468;2022-10-16T14:26:05;22.80;99.90
13462;DHT22;6803;45.264;5.468;2022-10-16T14:28:37;22.70;99.90
13462;DHT22;6803;45.264;5.468;2022-10-16T14:31:24;22.70;99.90
13462;DHT22;6803;45.264;5.468;2022-10-16T14:33:55;22.60;99.90
13462;DHT22;6803;45.264;5.468;2022-10-16T14:36:27;22.60;99.90
13462;DHT22;6803;45.264;5.468;2022-10-16T14:39:02;22.60;99.90
13462;DHT22;6803;45.264;5.468;2022-10-16T14:41:40;22.60;99.90
13462;DHT22;6803;45.264;5.468;2022-10-16T14:44:09;22.40;99.90
13462;DHT22;6803;45.264;5.468;2022-10-16T14:46:41;22.50;99.90
13462;DHT22;6803;45.264;5.468;2022-10-16T14:51:55;22.40;99.90
13462;DHT22;6803;45.264;5.468;2022-10-16T14:54:28;22.20;99.90
13462;DHT22;6803;45.264;5.468;2022-10-16T14:56:59;22.30;99.90
13462;DHT22;6803;45.264;5.468;2022-10-16T15:02:15;22.10;99.90
13462;DHT22;6803;45.264;5.468;2022-10-16T15:04:47;22.20;99.90
13462;DHT22;6803;45.264;5.468;2022-10-16T15:07:19;22.10;99.90
13462;DHT22;6803;45.264;5.468;2022-10-16T15:09:51;21.90;99.90
13462;DHT22;6803;45.264;5.468;2022-10-16T15:12:22;21.80;99.90
13462;DHT22;6803;45.264;5.468;2022-10-16T15:14:53;21.80;99.90
13462;DHT22;6803;45.264;5.468;2022-10-16T15:17:25;21.70;99.90
13462;DHT22;6803;45.264;5.468;2022-10-16T15:19:57;21.50;99.90
13462;DHT22;6803;45.264;5.468;2022-10-16T15:22:28;21.40;99.90
13462;DHT22;6803;45.264;5.468;2022-10-16T15:24:59;21.50;99.90
13462;DHT22;6803;45.264;5.468;2022-10-16T15:27:29;21.50;99.90
13462;DHT22;6803;45.264;5.468;2022-10-16T15:30:03;21.60;99.90
13462;DHT22;6803;45.264;5.468;2022-10-16T15:32:35;21.60;99.90
13462;DHT22;6803;45.264;5.468;2022-10-16T15:35:09;21.50;99.90
13462;DHT22;6803;45.264;5.468;2022-10-16T15:37:40;21.50;99.90
13462;DHT22;6803;45.264;5.468;2022-10-16T15:40:12;21.50;99.90
13462;DHT22;6803;45.264;5.468;2022-10-16T15:42:44;21.40;99.90
13462;DHT22;6803;45.264;5.468;2022-10-16T15:45:15;21.30;99.90
13462;DHT22;6803;45.264;5.468;2022-10-16T15:47:48;21.20;99.90
13462;DHT22;6803;45.264;5.468;2022-10-16T15:50:20;21.00;99.90
13462;DHT22;6803;45.264;5.468;2022-10-16T15:52:51;20.90;99.90
13462;DHT22;6803;45.264;5.468;2022-10-16T15:55:22;20.90;99.90
13462;DHT22;6803;45.264;5.468;2022-10-16T15:57:53;21.10;99.90
13462;DHT22;6803;45.264;5.468;2022-10-16T16:00:24;21.10;99.90
13462;DHT22;6803;45.264;5.468;2022-10-16T16:02:55;21.00;99.90
13462;DHT22;6803;45.264;5.468;2022-10-16T16:05:26;20.70;99.90
13462;DHT22;6803;45.264;5.468;2022-10-16T16:07:57;20.50;99.90
13462;DHT22;6803;45.264;5.468;2022-10-16T16:10:28;20.50;99.90
13462;DHT22;6803;45.264;5.468;2022-10-16T16:12:59;20.40;99.90
13462;DHT22;6803;45.264;5.468;2022-10-16T16:15:30;20.20;99.90
13462;DHT22;6803;45.264;5.468;2022-10-16T16:18:00;20.10;99.90
13462;DHT22;6803;45.264;5.468;2022-10-16T16:20:34;19.90;99.90
13462;DHT22;6803;45.264;5.468;2022-10-16T16:23:05;19.70;99.90
13462;DHT22;6803;45.264;5.468;2022-10-16T16:25:37;19.70;99.90
13462;DHT22;6803;45.264;5.468;2022-10-16T16:28:07;19.60;99.90
13462;DHT22;6803;45.264;5.468;2022-10-16T16:30:39;19.60;99.90
13462;DHT22;6803;45.264;5.468;2022-10-16T16:33:10;19.50;99.90
13462;DHT22;6803;45.264;5.468;2022-10-16T16:38:19;19.40;99.90
13462;DHT22;6803;45.264;5.468;2022-10-16T16:40:55;19.50;99.90
13462;DHT22;6803;45.264;5.468;2022-10-16T16:43:28;19.40;99.90
13462;DHT22;6803;45.264;5.468;2022-10-16T16:46:01;19.50;99.90
13462;DHT22;6803;45.264;5.468;2022-10-16T16:48:33;19.40;99.90
13462;DHT22;6803;45.264;5.468;2022-10-16T16:51:05;19.30;99.90
13462;DHT22;6803;45.264;5.468;2022-10-16T16:53:36;19.40;99.90
13462;DHT22;6803;45.264;5.468;2022-10-16T16:56:08;19.30;99.90
13462;DHT22;6803;45.264;5.468;2022-10-16T16:58:39;19.30;99.90
13462;DHT22;6803;45.264;5.468;2022-10-16T17:01:11;19.30;99.90